Pagrindinis puslapis
METAR-TAF:

METAR-TAF

Oro uostai :

Barbasena, Minas Žeraisas, Brazilija

platuma: 21-15S, ilguma: 043-46W, Aukštis: 1171 m

Dabartinis oras

Ataskaita buvo paskelbta 1 valandą ir 5 minutes, ne 21:00 UTC
Vėjas 3 kt iš Rytų
Temperatūra 21°C
Drėgmė 64%
Slėgis 1023 hPa
Matomumas 10 km arba daugiau
nėra debesų žemiau 1500 m ir nėra kamuolinių lietaus debesų

METAR: SBBQ 162100Z 10003KT CAVOK 21/14 Q1023

Laikas: 19:05 (22:05 UTC)


TAF: trūkstamas

Orai ataskaitas ir orų prognozės (METAR, TAF).

turimą stotys yra geltonos ir raudonos taškus žemėlapyje.

Perkelti pele per norėdami pamatyti stoties vardą.

Tada spustelėkite, norėdami matyti oro stebėjimo ir prognozės.

Norėdami pakeisti žemėlapį: spustelėkite ant žalios mygtukų su juodo kryžiaus žemyn,; žalią mygtuką su brūkšneliu, jei norite nutolinti; arba žalių rodyklių gretimoms žemėlapius.


METAR-TAF: